Axtell, NE

7:24 PM CDT on April 24, 2015 (GMT -0500)
Hildreth | | Change Station
CLOSE
Current Station
Personal Weather Station
Location: Hildreth, NE
Elevation: 2198 ft
Nearby Weather Stations

Elev 2198 ft 40.33 °N, 99.05 °W | Updated 7 minutes ago

Overcast
Overcast
60.6 °F
Feels Like 60.6 °F
N
7.8
Wind Variable Wind from ESE

Today
High -- | Low -- °F
--% Chance of Precip.
Yesterday
High -- | Low -- °F
Precip. -- in
6:45 AM 8:24 PM
Waxing Crescent, 40% visible
Pressure 29.51 in
Visibility 10.0 miles
Clouds Scattered Clouds 1800 ft
Mostly Cloudy 5500 ft
Dew Point 56 °F
Humidity 84%
Rainfall 0.00 in
Snow Depth Not available.
UV 0 out of 12
Pollen 10.60 out of 12
Air Quality Not available.
Flu Activity Local Activity
METAR KHDE 250015Z AUTO 11011KT 10SM SCT018 BKN055 17/13 A2951 RMK AO2 T01650127

More Conditions Fewer Conditions

Pressure 29.51 in
Visibility 10.0 miles
Clouds Scattered Clouds 1800 ft
Mostly Cloudy 5500 ft
Dew Point 56 °F
Humidity 84%
Rainfall 0.00 in
Snow Depth Not available.
UV 0 out of 12
Pollen 10.60 out of 12
Air Quality Not available.
Flu Activity Local Activity
METAR KHDE 250015Z AUTO 11011KT 10SM SCT018 BKN055 17/13 A2951 RMK AO2 T01650127

More Conditions Fewer Conditions

10-Day Weather Forecast

Almanac

Astronomy

Apr. 24, 2015 Rise Set
Actual Time
Civil Twilight
Nautical Twilight
Astronomical Twilight
Moon
Length of Visible Light
Length of Day
Tomorrow will be .
, % of the Moon is Illuminated

Today's Extremes

State Highs State Lows

Community

WunderPhotos

Upload Photos

1,816,515 photos uploaded!

WunderBlogs® & News

Nearby

Air Quality

  Air Quality AQ Index Pollutant
Not available.

Snow Depth

Station Depth Elevation

Earthquake Activity

City Distance Mag. Time & Date
Minimum magnitude displayed is 2.5.

Coastal Water Temperatures

Place Temperature

Stations

Nearby Weather Stations

Station Location Temp. Windchill Dew Point Humidity Wind Precip. Elev Updated Type